SYNOP

Station Code SYNOP
43555
AAXX 19004 43555 11465 70908 10260 20246 30084 40086 60082 72582 8227/ 333 58000 70008 82817 87361=
43533
AAXX 19004 43533 12460 50906 10276 20233 30094 40096 60002 82232 333 58007 79999 82818 83077=
43577
AAXX 19004 43577 12464 59901 10254 20235 30088 40090 60002 81232 333 58000 79999 81818 85077=
43588
AAXX 19004 43588 12465 32303 10240 20226 30090 40091 60002 82201 333 58002 70000 82818=
43599
AAXX 19004 43599 12459 72705 10242 20228 30094 40096 60002 81108 333 58005 70000 81819 87276=
Last Updated : 2021-01-19 05:00:01